Time;durP1;ratioP1;P1;durP2;ratioP2;P2;SDS_P1;SDS_P2;PMS_P1;PMS_P2;Temp;Humidity;BMP_temperature;BMP_pressure;BME280_temperature;BME280_humidity;BME280_pressure;Samples;Min_cycle;Max_cycle;Signal;HPM_P1;HPM_P2
2022/09/16 00:00:45;;;;;;;6.47;3.25;;;15.90;99.90;;;;;;5068256;28;20083;-82
2022/09/16 00:03:12;;;;;;;6.55;3.20;;;15.90;99.90;;;;;;5056368;28;20177;-84
2022/09/16 00:05:42;;;;;;;4.75;3.28;;;15.80;99.90;;;;;;5028659;28;20032;-84
2022/09/16 00:08:08;;;;;;;5.03;3.20;;;15.90;99.90;;;;;;5046394;28;20055;-83
2022/09/16 00:10:35;;;;;;;5.50;2.80;;;15.80;99.90;;;;;;5042340;28;20035;-83
2022/09/16 00:13:01;;;;;;;5.13;2.88;;;15.90;99.90;;;;;;5053099;28;20037;-83
2022/09/16 00:15:27;;;;;;;9.27;3.17;;;15.90;99.90;;;;;;5075667;28;20020;-83
2022/09/16 00:17:53;;;;;;;4.78;2.70;;;15.90;99.90;;;;;;5070712;28;20546;-84
2022/09/16 00:20:19;;;;;;;7.47;2.95;;;15.90;99.90;;;;;;5064470;28;20025;-84
2022/09/16 00:22:44;;;;;;;4.53;2.40;;;15.90;99.90;;;;;;5076916;28;20063;-83
2022/09/16 00:25:10;;;;;;;4.68;2.70;;;15.90;99.90;;;;;;5074872;28;20063;-82
2022/09/16 00:27:36;;;;;;;7.18;2.72;;;15.90;99.90;;;;;;5062323;28;20093;-83
2022/09/16 00:30:02;;;;;;;12.10;3.30;;;15.90;99.90;;;;;;5037543;28;20167;-83
2022/09/16 00:32:29;;;;;;;5.40;2.97;;;15.90;99.90;;;;;;5063622;28;20061;-83
2022/09/16 00:34:55;;;;;;;9.00;2.80;;;15.90;99.90;;;;;;5065378;28;20021;-83
2022/09/16 00:37:21;;;;;;;7.00;2.60;;;15.90;99.90;;;;;;5047490;28;20029;-84
2022/09/16 00:39:48;;;;;;;5.22;2.70;;;15.90;99.90;;;;;;5065009;28;20026;-84
2022/09/16 00:42:14;;;;;;;4.97;2.80;;;15.90;99.90;;;;;;5062608;28;20033;-84
2022/09/16 00:44:54;;;;;;;12.75;3.65;;;15.90;99.90;;;;;;5045799;28;20036;-82
2022/09/16 00:47:42;;;;;;;5.53;3.35;;;15.80;99.90;;;;;;5058017;28;20032;-83
2022/09/16 00:50:30;;;;;;;4.93;3.40;;;15.80;99.90;;;;;;5043902;28;20029;-83
2022/09/16 00:52:56;;;;;;;5.97;2.90;;;15.80;99.90;;;;;;5052289;28;20061;-83
2022/09/16 00:55:29;;;;;;;5.47;3.35;;;15.80;99.90;;;;;;5009378;28;20045;-82
2022/09/16 00:58:04;;;;;;;6.18;3.70;;;15.80;99.90;;;;;;5061639;28;20039;-83
2022/09/16 01:00:31;;;;;;;10.27;4.22;;;15.80;99.90;;;;;;5068767;28;20119;-83
2022/09/16 01:02:56;;;;;;;6.65;3.22;;;15.80;99.90;;;;;;5054217;28;20037;-84
2022/09/16 01:05:25;;;;;;;5.97;4.20;;;15.80;99.90;;;;;;5053476;28;20017;-85
2022/09/16 01:07:53;;;;;;;6.30;4.40;;;15.80;99.90;;;;;;5070185;28;20021;-83
2022/09/16 01:10:22;;;;;;;4.15;3.55;;;15.80;99.90;;;;;;5047926;28;20105;-82
2022/09/16 01:12:53;;;;;;;7.50;4.25;;;15.80;99.90;;;;;;5043848;28;20033;-83
2022/09/16 01:15:23;;;;;;;5.63;3.67;;;15.80;99.90;;;;;;5026370;28;20124;-82
2022/09/16 01:17:51;;;;;;;5.28;3.60;;;15.90;99.90;;;;;;5057554;28;20055;-83
2022/09/16 01:20:47;;;;;;;7.68;3.78;;;15.80;99.90;;;;;;5058748;28;20058;-84
2022/09/16 01:23:45;;;;;;;6.35;3.78;;;15.80;99.90;;;;;;5060459;28;20040;-83
2022/09/16 01:26:42;;;;;;;6.03;4.00;;;15.90;99.90;;;;;;5042301;28;20024;-82
2022/09/16 01:29:14;;;;;;;6.57;3.67;;;15.80;99.90;;;;;;5043792;28;20041;-83
2022/09/16 01:32:11;;;;;;;8.95;3.90;;;15.80;99.90;;;;;;5035681;28;20550;-86
2022/09/16 01:34:49;;;;;;;8.48;4.13;;;15.80;99.90;;;;;;5023388;28;20063;-84
2022/09/16 01:38:00;;;;;;;6.47;3.75;;;15.80;99.90;;;;;;5035022;28;20037;-83
2022/09/16 01:41:04;;;;;;;4.82;3.78;;;15.80;99.90;;;;;;5033385;28;20091;-84
2022/09/16 01:43:54;;;;;;;10.32;4.43;;;15.80;99.90;;;;;;5048418;28;20021;-85
2022/09/16 01:46:42;;;;;;;8.00;3.63;;;15.70;99.90;;;;;;5031135;28;20095;-84
2022/09/16 01:49:19;;;;;;;5.60;3.83;;;15.70;99.90;;;;;;5059202;28;20089;-84
2022/09/16 01:52:06;;;;;;;15.18;4.85;;;15.70;99.90;;;;;;5057408;28;20068;-83
2022/09/16 01:54:40;;;;;;;10.30;3.75;;;15.70;99.90;;;;;;5072451;28;20021;-82
2022/09/16 01:57:21;;;;;;;6.78;3.50;;;15.70;99.90;;;;;;5060292;28;20081;-85
2022/09/16 01:59:56;;;;;;;8.77;3.60;;;15.60;99.90;;;;;;5069782;28;20025;-85
2022/09/16 02:02:22;;;;;;;7.38;4.10;;;15.60;99.90;;;;;;5040844;28;20042;-84
2022/09/16 02:04:53;;;;;;;7.43;4.00;;;15.50;99.90;;;;;;5057885;28;20016;-83
2022/09/16 02:07:24;;;;;;;6.07;4.00;;;15.50;99.90;;;;;;5055791;28;20038;-84
2022/09/16 02:10:22;;;;;;;10.52;4.00;;;15.60;99.90;;;;;;5054485;28;20025;-83
2022/09/16 02:12:51;;;;;;;6.20;3.63;;;15.60;99.90;;;;;;5037625;28;20497;-83
2022/09/16 02:15:21;;;;;;;11.13;4.50;;;15.60;99.90;;;;;;5031705;28;20040;-81
2022/09/16 02:17:51;;;;;;;6.10;3.42;;;15.50;99.90;;;;;;5054869;28;20072;-84
2022/09/16 02:20:23;;;;;;;7.53;4.40;;;15.50;99.90;;;;;;5028446;28;20063;-83
2022/09/16 02:22:59;;;;;;;6.80;4.13;;;15.50;99.90;;;;;;5068875;28;20033;-84
2022/09/16 02:25:26;;;;;;;10.13;4.43;;;15.50;99.90;;;;;;5064690;28;20085;-84
2022/09/16 02:27:52;;;;;;;5.50;4.05;;;15.50;99.90;;;;;;5066825;28;20017;-84
2022/09/16 02:30:20;;;;;;;6.05;3.80;;;15.40;99.90;;;;;;5068675;28;20093;-84
2022/09/16 02:32:54;;;;;;;14.45;4.50;;;15.40;99.90;;;;;;5070741;28;20036;-83
2022/09/16 02:35:21;;;;;;;9.17;4.40;;;15.40;99.90;;;;;;5051132;28;20055;-81
2022/09/16 02:38:05;;;;;;;6.40;4.45;;;15.40;99.90;;;;;;5071489;28;20041;-82
2022/09/16 02:40:39;;;;;;;8.93;4.47;;;15.40;99.90;;;;;;5073007;28;20041;-84
2022/09/16 02:43:05;;;;;;;6.75;3.97;;;15.40;99.90;;;;;;5041263;28;20051;-85
2022/09/16 02:45:41;;;;;;;5.47;4.35;;;15.40;99.90;;;;;;5072233;28;20020;-85
2022/09/16 02:48:34;;;;;;;4.90;4.10;;;15.50;99.90;;;;;;5075603;28;20029;-84
2022/09/16 02:51:10;;;;;;;10.95;5.03;;;15.50;99.90;;;;;;5034023;28;20048;-84
2022/09/16 02:53:46;;;;;;;8.07;4.65;;;15.50;99.90;;;;;;5034724;28;20048;-83
2022/09/16 02:56:36;;;;;;;9.65;4.82;;;15.50;99.90;;;;;;5049723;28;20053;-83
2022/09/16 02:59:05;;;;;;;8.50;4.88;;;15.50;99.90;;;;;;5050533;28;20031;-84
2022/09/16 03:01:35;;;;;;;11.57;4.60;;;15.50;99.90;;;;;;5073197;28;20080;-84
2022/09/16 03:04:01;;;;;;;11.95;4.85;;;15.50;99.90;;;;;;5050373;28;20026;-84
2022/09/16 03:06:28;;;;;;;11.85;5.85;;;15.50;99.90;;;;;;5024085;28;20029;-84
2022/09/16 03:08:59;;;;;;;12.52;5.32;;;15.50;99.90;;;;;;5042086;28;20025;-85
2022/09/16 03:11:31;;;;;;;8.63;5.07;;;15.50;99.90;;;;;;5045534;28;20041;-83
2022/09/16 03:14:18;;;;;;;9.30;5.88;;;15.50;99.90;;;;;;5048227;28;20041;-83
2022/09/16 03:16:44;;;;;;;7.70;5.45;;;15.50;99.90;;;;;;5054600;28;20067;-84
2022/09/16 03:19:36;;;;;;;10.88;6.05;;;15.50;99.90;;;;;;5070826;28;20088;-84
2022/09/16 03:22:27;;;;;;;9.30;5.72;;;15.50;99.90;;;;;;5055852;28;20025;-84
2022/09/16 03:25:14;;;;;;;11.10;5.75;;;15.50;99.90;;;;;;5056625;28;20029;-83
2022/09/16 03:28:11;;;;;;;8.60;5.72;;;15.50;99.90;;;;;;5042002;28;20021;-85
2022/09/16 03:31:03;;;;;;;8.93;6.75;;;15.50;99.90;;;;;;5059681;28;20089;-81
2022/09/16 03:33:48;;;;;;;11.13;6.10;;;15.50;99.90;;;;;;5057105;28;20037;-81
2022/09/16 03:36:22;;;;;;;11.30;6.22;;;15.50;99.90;;;;;;5049070;28;20021;-82
2022/09/16 03:38:48;;;;;;;10.35;6.03;;;15.50;99.90;;;;;;5040939;28;20044;-84
2022/09/16 03:41:15;;;;;;;9.63;6.72;;;15.50;99.90;;;;;;5057588;28;20300;-84
2022/09/16 03:43:56;;;;;;;9.55;6.50;;;15.40;99.90;;;;;;5071186;28;20033;-83
2022/09/16 03:46:22;;;;;;;10.50;6.38;;;15.40;99.90;;;;;;5053076;28;20032;-82
2022/09/16 03:48:48;;;;;;;10.75;7.43;;;15.30;99.90;;;;;;5069562;28;20025;-82
2022/09/16 03:51:14;;;;;;;12.57;6.70;;;15.40;99.90;;;;;;5050177;28;20479;-83
2022/09/16 03:53:40;;;;;;;10.10;6.65;;;15.30;99.90;;;;;;5070240;28;20024;-82
2022/09/16 03:56:06;;;;;;;11.80;6.93;;;15.30;99.90;;;;;;5051913;28;20029;-82
2022/09/16 03:58:32;;;;;;;13.93;6.78;;;15.20;99.90;;;;;;5069914;28;20025;-83
2022/09/16 04:00:58;;;;;;;11.90;7.53;;;15.20;99.90;;;;;;5058807;28;20041;-82
2022/09/16 04:03:24;;;;;;;10.05;6.97;;;15.20;99.90;;;;;;5041416;28;20033;-83
2022/09/16 04:05:53;;;;;;;12.27;7.68;;;15.20;99.90;;;;;;5056033;28;20037;-83
2022/09/16 04:08:20;;;;;;;9.60;7.25;;;15.20;99.90;;;;;;5041828;28;20085;-84
2022/09/16 04:10:56;;;;;;;17.50;8.20;;;15.20;99.90;;;;;;5072209;28;20020;-82
2022/09/16 04:13:22;;;;;;;11.80;7.10;;;15.20;99.90;;;;;;5079567;28;20025;-83
2022/09/16 04:15:49;;;;;;;10.57;7.40;;;15.30;99.90;;;;;;5060669;28;20037;-84
2022/09/16 04:18:15;;;;;;;13.40;7.50;;;15.30;99.90;;;;;;5038722;28;20045;-84
2022/09/16 04:20:41;;;;;;;10.57;7.80;;;15.30;99.90;;;;;;5042668;28;20049;-84
2022/09/16 04:23:07;;;;;;;8.77;6.97;;;15.30;99.90;;;;;;5067427;28;20040;-82
2022/09/16 04:25:33;;;;;;;13.43;7.82;;;15.30;99.90;;;;;;5053002;28;20021;-83
2022/09/16 04:28:00;;;;;;;11.35;7.80;;;15.20;99.90;;;;;;5072177;28;20033;-84
2022/09/16 04:30:27;;;;;;;15.35;7.75;;;15.20;99.90;;;;;;5065015;28;20026;-83
2022/09/16 04:32:54;;;;;;;11.00;7.63;;;15.20;99.90;;;;;;5054552;28;20026;-83
2022/09/16 04:35:20;;;;;;;12.32;7.57;;;15.20;99.90;;;;;;5036113;28;20009;-83
2022/09/16 04:37:46;;;;;;;16.50;7.70;;;15.20;99.90;;;;;;5034949;28;20029;-84
2022/09/16 04:40:12;;;;;;;15.40;7.90;;;15.20;99.90;;;;;;5054015;28;20017;-82
2022/09/16 04:42:38;;;;;;;11.15;7.57;;;15.20;99.90;;;;;;5052090;28;20079;-83
2022/09/16 04:45:04;;;;;;;12.23;7.80;;;15.20;99.90;;;;;;5032447;28;20148;-83
2022/09/16 04:47:30;;;;;;;17.63;7.40;;;15.20;99.90;;;;;;5050156;28;20045;-85
2022/09/16 04:49:56;;;;;;;12.48;7.38;;;15.30;99.90;;;;;;5048985;28;20020;-85
2022/09/16 04:52:22;;;;;;;11.30;6.95;;;15.30;99.90;;;;;;5048260;28;21471;-85
2022/09/16 04:54:47;;;;;;;13.88;7.60;;;15.30;99.90;;;;;;5075613;28;20016;-89
2022/09/16 04:57:15;;;;;;;13.80;7.28;;;15.30;99.90;;;;;;5041538;28;20032;-87
2022/09/16 04:59:41;;;;;;;10.68;6.60;;;15.30;99.90;;;;;;5039098;28;20045;-87
2022/09/16 05:02:07;;;;;;;11.60;7.57;;;15.40;99.90;;;;;;5069820;28;20117;-86
2022/09/16 05:04:32;;;;;;;14.50;7.68;;;15.40;99.90;;;;;;5038785;28;20029;-85
2022/09/16 05:06:58;;;;;;;14.10;8.60;;;15.40;99.90;;;;;;5053252;28;20040;-85
2022/09/16 05:09:24;;;;;;;13.80;7.47;;;15.40;99.90;;;;;;5071134;28;20514;-83
2022/09/16 05:11:50;;;;;;;14.00;7.55;;;15.50;99.90;;;;;;5072255;28;20096;-86
2022/09/16 05:14:17;;;;;;;15.63;7.63;;;15.40;99.90;;;;;;5075727;28;20009;-84
2022/09/16 05:16:43;;;;;;;10.27;6.70;;;15.50;99.90;;;;;;5073789;28;20092;-83
2022/09/16 05:19:11;;;;;;;16.70;7.70;;;15.50;99.90;;;;;;5071051;28;20025;-84
2022/09/16 05:21:38;;;;;;;8.98;7.25;;;15.50;99.90;;;;;;5055056;28;20534;-84
2022/09/16 05:24:07;;;;;;;16.38;7.97;;;15.50;99.90;;;;;;5054952;28;20409;-84
2022/09/16 05:26:34;;;;;;;11.43;6.60;;;15.50;99.90;;;;;;5051405;28;20021;-83
2022/09/16 05:29:02;;;;;;;11.50;7.35;;;15.50;99.90;;;;;;5061020;28;20617;-83
2022/09/16 05:31:31;;;;;;;14.30;6.63;;;15.50;99.90;;;;;;5051357;28;20022;-85
2022/09/16 05:33:59;;;;;;;9.90;6.72;;;15.50;99.90;;;;;;5071812;23;20052;-82
2022/09/16 05:36:26;;;;;;;11.32;6.70;;;15.40;99.90;;;;;;5064598;28;20059;-82
2022/09/16 05:38:52;;;;;;;11.93;6.80;;;15.40;99.90;;;;;;5065848;28;20124;-81
2022/09/16 05:41:17;;;;;;;10.98;6.85;;;15.40;99.90;;;;;;5061615;28;20021;-83
2022/09/16 05:43:43;;;;;;;14.15;6.82;;;15.40;99.90;;;;;;5059898;28;20043;-84
2022/09/16 05:46:15;;;;;;;10.90;6.40;;;15.40;99.90;;;;;;5058949;28;20032;-83
2022/09/16 05:48:40;;;;;;;9.35;6.55;;;15.50;99.90;;;;;;5040767;28;20396;-84
2022/09/16 05:51:06;;;;;;;11.05;6.75;;;15.60;99.90;;;;;;5040536;28;20060;-82
2022/09/16 05:53:33;;;;;;;12.25;6.10;;;15.60;99.90;;;;;;5024165;28;20026;-85
2022/09/16 05:56:02;;;;;;;8.95;5.88;;;15.60;99.90;;;;;;5025231;28;20053;-83
2022/09/16 05:58:30;;;;;;;10.38;5.55;;;15.70;99.90;;;;;;5058627;28;20036;-82
2022/09/16 06:01:01;;;;;;;12.18;5.78;;;15.80;99.90;;;;;;5046932;28;20082;-82
2022/09/16 06:03:27;;;;;;;14.65;6.45;;;15.90;99.90;;;;;;5061804;28;20052;-81
2022/09/16 06:06:06;;;;;;;11.20;5.80;;;16.00;99.90;;;;;;5031124;28;20044;-84
2022/09/16 06:08:34;;;;;;;14.90;5.80;;;16.10;99.90;;;;;;5039711;28;20044;-81
2022/09/16 06:11:02;;;;;;;13.25;5.95;;;16.10;99.90;;;;;;5025063;28;20036;-83
2022/09/16 06:13:28;;;;;;;11.30;5.65;;;16.10;99.90;;;;;;5052653;28;20052;-82
2022/09/16 06:15:54;;;;;;;9.32;5.40;;;16.10;99.90;;;;;;5066334;28;20029;-82
2022/09/16 06:18:22;;;;;;;11.18;5.68;;;16.10;99.90;;;;;;5062153;28;20025;-82
2022/09/16 06:20:48;;;;;;;10.20;5.38;;;16.20;99.90;;;;;;5061234;28;20025;-82
2022/09/16 06:23:15;;;;;;;8.75;4.93;;;16.20;99.90;;;;;;5074150;28;20024;-84
2022/09/16 06:25:41;;;;;;;9.88;4.82;;;16.20;99.90;;;;;;5057506;28;20031;-84
2022/09/16 06:28:08;;;;;;;10.63;5.03;;;16.20;99.90;;;;;;5076402;28;20178;-83
2022/09/16 06:30:34;;;;;;;8.90;5.22;;;16.10;99.90;;;;;;5076468;28;20032;-83
2022/09/16 06:33:00;;;;;;;15.10;5.15;;;16.00;99.90;;;;;;5076856;28;20109;-84
2022/09/16 06:35:26;;;;;;;9.75;5.40;;;16.10;99.90;;;;;;5076994;28;20036;-84
2022/09/16 06:37:53;;;;;;;9.40;4.68;;;16.40;99.90;;;;;;5075047;28;20053;-83
2022/09/16 06:40:19;;;;;;;9.57;4.90;;;16.60;99.90;;;;;;5075376;28;20017;-84
2022/09/16 06:42:45;;;;;;;12.55;4.65;;;16.90;99.90;;;;;;5053989;28;20037;-83
2022/09/16 06:45:11;;;;;;;13.73;5.18;;;17.00;99.90;;;;;;5028543;28;20075;-83
2022/09/16 06:47:37;;;;;;;8.27;4.28;;;17.00;99.90;;;;;;5063608;28;20075;-85
2022/09/16 06:50:04;;;;;;;6.28;4.22;;;17.20;99.90;;;;;;5061394;28;20025;-85
2022/09/16 06:52:30;;;;;;;13.13;7.90;;;17.30;99.90;;;;;;5058121;28;20041;-84
2022/09/16 06:54:56;;;;;;;7.10;4.25;;;17.20;99.90;;;;;;5041376;28;20029;-84
2022/09/16 06:57:23;;;;;;;8.20;4.47;;;17.30;99.90;;;;;;5060122;28;20172;-83
2022/09/16 06:59:49;;;;;;;9.98;4.05;;;17.50;99.90;;;;;;5055924;28;20032;-83
2022/09/16 07:02:15;;;;;;;8.27;4.00;;;17.50;99.90;;;;;;5051944;28;20120;-85
2022/09/16 07:04:41;;;;;;;8.10;3.70;;;17.50;99.90;;;;;;5054118;28;20044;-82
2022/09/16 07:07:07;;;;;;;9.30;4.15;;;17.50;99.90;;;;;;5054097;28;20018;-85
2022/09/16 07:09:33;;;;;;;4.15;3.30;;;17.60;99.90;;;;;;5053915;28;20030;-84
2022/09/16 07:11:59;;;;;;;6.28;3.67;;;17.70;99.90;;;;;;5036088;28;20040;-85
2022/09/16 07:14:27;;;;;;;5.50;2.80;;;17.80;99.90;;;;;;5053045;28;20014;-83
2022/09/16 07:16:53;;;;;;;11.85;3.22;;;18.10;99.90;;;;;;5053443;28;20096;-84
2022/09/16 07:19:20;;;;;;;5.70;2.65;;;18.30;99.90;;;;;;5051095;28;20046;-84
2022/09/16 07:21:46;;;;;;;4.75;2.80;;;18.70;99.90;;;;;;5049978;28;20052;-82
2022/09/16 07:24:13;;;;;;;3.90;2.47;;;18.90;99.90;;;;;;5047467;28;20018;-84
2022/09/16 07:26:40;;;;;;;6.15;2.80;;;19.20;99.90;;;;;;5049999;28;20022;-84
2022/09/16 07:29:08;;;;;;;6.65;3.05;;;19.30;99.90;;;;;;5050815;28;20036;-84
2022/09/16 07:31:36;;;;;;;4.95;2.30;;;19.30;99.90;;;;;;5041925;28;20464;-83
2022/09/16 07:34:05;;;;;;;3.85;2.38;;;19.30;99.90;;;;;;5046549;28;20042;-83
2022/09/16 07:36:34;;;;;;;8.52;3.08;;;19.40;99.90;;;;;;5045651;28;20044;-84
2022/09/16 07:39:00;;;;;;;5.93;2.70;;;19.40;99.90;;;;;;5042757;28;20056;-83
2022/09/16 07:41:28;;;;;;;7.75;3.25;;;19.50;99.90;;;;;;5043379;28;20053;-82
2022/09/16 07:43:58;;;;;;;7.18;2.55;;;19.50;99.90;;;;;;5032356;28;20044;-82
2022/09/16 07:46:26;;;;;;;10.30;2.85;;;19.30;99.90;;;;;;5056935;28;20026;-82
2022/09/16 07:48:53;;;;;;;10.50;2.88;;;19.20;99.90;;;;;;5034721;28;20024;-83
2022/09/16 07:51:21;;;;;;;5.68;2.50;;;19.10;99.90;;;;;;5055032;28;20021;-83
2022/09/16 07:53:48;;;;;;;9.02;2.90;;;19.00;99.90;;;;;;5058716;28;20021;-83
2022/09/16 07:56:16;;;;;;;8.43;3.55;;;18.80;99.90;;;;;;5054233;28;20063;-82
2022/09/16 07:58:44;;;;;;;6.10;3.22;;;18.70;99.90;;;;;;5060821;28;20001;-83
2022/09/16 08:01:10;;;;;;;7.50;3.40;;;18.70;99.90;;;;;;5042422;28;20048;-84
2022/09/16 08:03:37;;;;;;;8.02;3.05;;;18.50;99.90;;;;;;5041231;28;20518;-84
2022/09/16 08:06:06;;;;;;;9.20;3.58;;;18.60;99.90;;;;;;5060940;28;20049;-83
2022/09/16 08:08:33;;;;;;;8.48;2.95;;;18.60;99.90;;;;;;5039533;28;20028;-83
2022/09/16 08:11:00;;;;;;;9.50;3.65;;;18.60;99.90;;;;;;5046549;28;20096;-84
2022/09/16 08:13:30;;;;;;;9.65;3.08;;;18.60;99.90;;;;;;5058376;28;20114;-82
2022/09/16 08:16:06;;;;;;;5.43;3.28;;;18.60;99.90;;;;;;5033920;28;20041;-84
2022/09/16 08:18:32;;;;;;;7.53;3.10;;;18.60;99.90;;;;;;5032586;28;20132;-83
2022/09/16 08:21:17;;;;;;;3.83;2.70;;;18.50;99.90;;;;;;5043628;28;20026;-83
2022/09/16 08:23:43;;;;;;;;;;;18.60;99.90;;;;;;5042529;28;20052;-83
2022/09/16 08:26:11;;;;;;;5.55;2.88;;;18.70;99.90;;;;;;5041395;28;19905;-83
2022/09/16 08:28:38;;;;;;;6.32;3.10;;;18.90;99.90;;;;;;5041164;28;20067;-83
2022/09/16 08:31:04;;;;;;;5.50;2.75;;;18.90;99.90;;;;;;5024554;28;20106;-83
2022/09/16 08:33:31;;;;;;;4.60;2.92;;;19.10;99.90;;;;;;5042642;28;20042;-84
2022/09/16 08:36:14;;;;;;;4.60;2.75;;;19.30;99.90;;;;;;5040828;28;20029;-82
2022/09/16 08:38:42;;;;;;;5.45;2.60;;;19.40;99.90;;;;;;5024797;28;20111;-84
2022/09/16 08:41:25;;;;;;;7.25;2.85;;;19.30;99.90;;;;;;5023687;28;20052;-83
2022/09/16 08:44:06;;;;;;;8.02;2.55;;;19.20;99.90;;;;;;5041257;28;20497;-84
2022/09/16 08:46:49;;;;;;;8.93;2.60;;;19.20;99.90;;;;;;5039895;28;20052;-83
2022/09/16 08:49:46;;;;;;;10.43;2.80;;;19.40;99.90;;;;;;5040688;28;20036;-84
2022/09/16 08:52:32;;;;;;;7.07;2.78;;;19.80;99.90;;;;;;5057622;28;20034;-83
2022/09/16 08:55:10;;;;;;;4.10;2.45;;;19.80;99.90;;;;;;5027688;28;20087;-83
2022/09/16 08:57:46;;;;;;;4.95;3.00;;;20.10;99.90;;;;;;5051915;28;20105;-83
2022/09/16 09:00:14;;;;;;;6.38;2.80;;;20.60;99.90;;;;;;5063519;28;20028;-83
2022/09/16 09:02:46;;;;;;;11.02;3.10;;;21.10;99.90;;;;;;5039839;28;20082;-85
2022/09/16 09:05:18;;;;;;;6.10;2.83;;;21.30;99.90;;;;;;5061423;28;20025;-82
2022/09/16 09:07:56;;;;;;;5.10;2.60;;;21.50;99.90;;;;;;5059685;28;20097;-84
2022/09/16 09:10:52;;;;;;;3.38;2.22;;;21.90;99.90;;;;;;5054629;28;20028;-84
2022/09/16 09:13:24;;;;;;;5.10;2.55;;;22.10;99.90;;;;;;4998648;28;20102;-84
2022/09/16 09:16:04;;;;;;;6.03;2.80;;;22.00;99.90;;;;;;5062488;28;20100;-82
2022/09/16 09:18:38;;;;;;;4.10;2.20;;;22.00;99.90;;;;;;5027611;28;20025;-83
2022/09/16 09:21:24;;;;;;;3.90;2.17;;;21.60;99.90;;;;;;5053431;28;20040;-83
2022/09/16 09:24:07;;;;;;;6.07;2.70;;;21.20;99.90;;;;;;5046990;28;20068;-83
2022/09/16 09:26:36;;;;;;;9.27;4.35;;;21.00;99.90;;;;;;5045019;28;20103;-82
2022/09/16 09:29:22;;;;;;;12.52;4.50;;;21.10;99.90;;;;;;5053066;28;20293;-83
2022/09/16 09:32:20;;;;;;;11.20;2.85;;;21.00;99.90;;;;;;5053840;28;20557;-85
2022/09/16 09:34:46;;;;;;;8.93;2.90;;;20.70;99.90;;;;;;5018884;28;20107;-84
2022/09/16 09:37:31;;;;;;;5.40;3.05;;;20.60;99.90;;;;;;5061593;28;20025;-85
2022/09/16 09:40:10;;;;;;;8.23;2.63;;;20.80;99.90;;;;;;5058818;28;20410;-85
2022/09/16 09:43:13;;;;;;;8.35;3.00;;;21.00;99.90;;;;;;5055945;28;20041;-86
2022/09/16 09:45:54;;;;;;;6.70;2.67;;;21.10;99.90;;;;;;5050947;28;20021;-84
2022/09/16 09:48:44;;;;;;;6.25;3.10;;;21.10;99.90;;;;;;5051920;28;20022;-85
2022/09/16 09:51:40;;;;;;;6.43;2.85;;;21.00;99.90;;;;;;5001507;28;20060;-86
2022/09/16 09:54:24;;;;;;;5.88;2.88;;;21.10;99.90;;;;;;5046257;28;20038;-85
2022/09/16 09:56:54;;;;;;;8.40;3.25;;;21.50;99.90;;;;;;5047570;28;20061;-86
2022/09/16 09:59:36;;;;;;;8.82;3.47;;;21.50;99.90;;;;;;5049522;28;20021;-88
2022/09/16 10:02:02;;;;;;;7.03;3.67;;;21.40;99.90;;;;;;5052983;28;20029;-86
2022/09/16 10:04:36;;;;;;;9.45;3.83;;;20.90;99.90;;;;;;5025000;28;20075;-87
2022/09/16 10:07:03;;;;;;;;;;;20.70;99.90;;;;;;5002344;28;20068;-84
2022/09/16 10:09:29;;;;;;;7.68;3.75;;;20.60;99.90;;;;;;5001969;28;19985;-79
2022/09/16 10:11:55;;;;;;;7.93;3.92;;;20.60;99.90;;;;;;5058136;28;20044;-78
2022/09/16 10:14:33;;;;;;;5.88;4.20;;;20.60;99.90;;;;;;5065724;28;20028;-80
2022/09/16 10:17:02;;;;;;;10.35;4.32;;;20.50;99.90;;;;;;5046239;28;20024;-80
2022/09/16 10:19:30;;;;;;;7.05;4.25;;;20.40;99.90;;;;;;5070500;28;20036;-80
2022/09/16 10:22:17;;;;;;;7.72;4.63;;;20.30;99.90;;;;;;5069816;28;20025;-80
2022/09/16 10:24:42;;;;;;;7.63;4.35;;;20.30;99.90;;;;;;5040609;28;20662;-81
2022/09/16 10:27:20;;;;;;;9.43;4.13;;;20.40;99.90;;;;;;5024939;28;20021;-81
2022/09/16 10:29:47;;;;;;;6.85;3.90;;;20.30;99.90;;;;;;5024049;28;20048;-79
2022/09/16 10:32:18;;;;;;;10.07;4.32;;;20.20;99.90;;;;;;5020058;28;20604;-79
2022/09/16 10:34:46;;;;;;;6.47;4.63;;;20.00;99.90;;;;;;5023544;28;20408;-79
2022/09/16 10:37:12;;;;;;;9.63;5.30;;;20.10;99.90;;;;;;5048227;28;20052;-79
2022/09/16 10:39:41;;;;;;;9.90;5.45;;;20.10;99.90;;;;;;5047883;28;20030;-80
2022/09/16 10:42:25;;;;;;;7.85;4.93;;;20.10;99.90;;;;;;5047048;28;20033;-79
2022/09/16 10:44:54;;;;;;;8.07;5.20;;;19.90;99.90;;;;;;5026643;28;20045;-81
2022/09/16 10:47:31;;;;;;;10.98;5.45;;;19.80;99.90;;;;;;5035484;28;20059;-79
2022/09/16 10:50:04;;;;;;;8.65;5.03;;;19.80;99.90;;;;;;5039299;28;20029;-78
2022/09/16 10:52:39;;;;;;;10.73;6.07;;;20.10;99.90;;;;;;5038958;28;20417;-79
2022/09/16 10:55:34;;;;;;;12.43;5.70;;;20.10;99.90;;;;;;5041457;28;20037;-81
2022/09/16 10:58:08;;;;;;;8.33;5.33;;;20.30;99.90;;;;;;5021316;28;20092;-79
2022/09/16 11:01:07;;;;;;;9.57;4.28;;;20.20;99.90;;;;;;5037397;28;20264;-77
2022/09/16 11:03:57;;;;;;;10.27;4.95;;;20.10;99.90;;;;;;5002589;28;20049;-79
2022/09/16 11:06:42;;;;;;;8.23;4.72;;;20.20;99.90;;;;;;5026065;28;20056;-80
2022/09/16 11:09:24;;;;;;;8.65;5.68;;;20.00;99.90;;;;;;5019136;28;20041;-79
2022/09/16 11:12:04;;;;;;;12.85;5.03;;;19.70;99.90;;;;;;5019690;28;20026;-79
2022/09/16 11:14:58;;;;;;;8.15;4.43;;;19.80;99.90;;;;;;5016958;28;20036;-79
2022/09/16 11:17:54;;;;;;;8.85;4.70;;;19.90;99.90;;;;;;5002775;28;20037;-78
2022/09/16 11:20:40;;;;;;;11.07;5.15;;;20.20;99.90;;;;;;5031750;28;20029;-78
2022/09/16 11:23:26;;;;;;;9.05;5.57;;;20.10;99.90;;;;;;5033971;28;20129;-79
2022/09/16 11:26:04;;;;;;;13.65;5.90;;;20.10;99.90;;;;;;5033468;28;20053;-79
2022/09/16 11:29:08;;;;;;;12.50;6.13;;;20.10;99.90;;;;;;5029504;28;20018;-81
2022/09/16 11:31:37;;;;;;;13.52;5.35;;;19.90;99.90;;;;;;5034270;28;20022;-80
2022/09/16 11:34:42;;;;;;;9.15;4.65;;;19.90;99.90;;;;;;5102728;22;20056;-89
2022/09/16 11:37:14;;;;;;;7.38;4.60;;;19.90;99.90;;;;;;5073601;28;20047;-89
2022/09/16 11:40:22;;;;;;;8.30;5.18;;;19.30;99.90;;;;;;5073288;28;20035;-88
2022/09/16 11:43:09;;;;;;;10.18;5.20;;;19.10;99.90;;;;;;5046845;28;20397;-88
2022/09/16 11:46:01;;;;;;;12.40;5.63;;;18.90;99.90;;;;;;5035538;28;20018;-86
2022/09/16 11:48:53;;;;;;;8.80;5.30;;;18.70;99.90;;;;;;5053630;28;20033;-88
2022/09/16 11:51:43;;;;;;;7.22;4.70;;;18.50;99.90;;;;;;5038200;28;20029;-89
2022/09/16 11:54:57;;;;;;;8.13;4.80;;;18.50;99.90;;;;;;5037887;28;20485;-88
2022/09/16 11:57:37;;;;;;;8.55;4.80;;;18.70;99.90;;;;;;5036652;28;20052;-88
2022/09/16 12:00:12;;;;;;;12.05;4.72;;;18.90;99.90;;;;;;5051528;28;20057;-88
2022/09/16 12:03:04;;;;;;;12.38;4.82;;;19.10;99.90;;;;;;5050403;28;20040;-88
2022/09/16 12:05:40;;;;;;;9.70;4.65;;;19.10;99.90;;;;;;5035299;28;20041;-88
2022/09/16 12:08:24;;;;;;;11.45;4.25;;;19.40;99.90;;;;;;5050159;28;20026;-85
2022/09/16 12:11:35;;;;;;;7.97;4.57;;;19.60;99.90;;;;;;5050721;28;20137;-87
2022/09/16 12:14:14;;;;;;;15.35;4.38;;;19.90;99.90;;;;;;4950763;29;20043;-87
2022/09/16 12:17:17;;;;;;;6.55;4.07;;;19.90;99.90;;;;;;5046759;28;20052;-83
2022/09/16 12:19:59;;;;;;;7.45;3.92;;;20.20;99.90;;;;;;5049222;28;20030;-86
2022/09/16 12:22:46;;;;;;;11.38;4.68;;;20.10;99.90;;;;;;5031159;28;20030;-83
2022/09/16 12:25:37;;;;;;;6.75;4.15;;;19.80;99.90;;;;;;5056243;28;20025;-86
2022/09/16 12:28:28;;;;;;;8.63;4.32;;;19.60;99.90;;;;;;5060140;28;20071;-86
2022/09/16 12:31:33;;;;;;;6.50;4.30;;;19.50;99.90;;;;;;5058393;28;20404;-86
2022/09/16 12:34:12;;;;;;;15.63;5.03;;;19.60;99.90;;;;;;5058120;28;20030;-84
2022/09/16 12:36:42;;;;;;;6.50;3.90;;;19.80;99.90;;;;;;5060655;28;20085;-85
2022/09/16 12:39:11;;;;;;;6.68;4.13;;;20.20;99.90;;;;;;5057562;28;20104;-81
2022/09/16 12:41:43;;;;;;;6.80;3.58;;;20.70;99.90;;;;;;5069406;28;20037;-82
2022/09/16 12:44:32;;;;;;;9.82;4.35;;;20.40;99.90;;;;;;5067476;28;20029;-81
2022/09/16 12:47:13;;;;;;;10.77;5.13;;;19.80;99.90;;;;;;5061427;28;20038;-86
2022/09/16 12:50:04;;;;;;;12.48;4.63;;;19.90;99.90;;;;;;5057003;28;20024;-88
2022/09/16 12:52:33;;;;;;;8.60;3.90;;;20.00;99.90;;;;;;5062409;28;20029;-87
2022/09/16 12:55:28;;;;;;;5.40;3.63;;;19.90;99.90;;;;;;5059402;28;20063;-89
2022/09/16 12:58:13;;;;;;;7.75;3.92;;;19.70;99.90;;;;;;5103531;22;20041;-87
2022/09/16 13:03:56;;;;;;;7.85;3.83;;;19.60;99.90;;;;;;5058127;28;20037;-89
2022/09/16 13:06:36;;;;;;;9.23;4.10;;;19.90;99.90;;;;;;5042231;28;20055;-88
2022/09/16 13:09:20;;;;;;;11.27;4.28;;;20.10;99.90;;;;;;5041840;28;20033;-90
2022/09/16 13:12:02;;;;;;;7.25;4.10;;;20.00;99.90;;;;;;5137982;23;20034;-89
2022/09/16 13:14:40;;;;;;;9.20;4.35;;;20.00;99.90;;;;;;5064253;28;20052;-89
2022/09/16 13:17:10;;;;;;;5.63;4.10;;;20.20;99.90;;;;;;5041723;28;20053;-88
2022/09/16 13:19:53;;;;;;;9.48;3.67;;;20.20;99.90;;;;;;5041784;28;20041;-90
2022/09/16 13:22:36;;;;;;;9.00;3.88;;;20.30;99.90;;;;;;5025419;28;20036;-90